createdAt,value
2019-04-22T00:01:16.388Z,11.29
2019-04-22T00:03:49.737Z,11.23
2019-04-22T00:06:34.147Z,11.20
2019-04-22T00:09:03.555Z,11.16
2019-04-22T00:11:43.338Z,11.12
2019-04-22T00:14:01.289Z,11.09
2019-04-22T00:16:46.939Z,11.06
2019-04-22T00:19:19.339Z,11.04
2019-04-22T00:21:43.213Z,11.04
2019-04-22T00:24:10.653Z,11.00
2019-04-22T00:26:45.527Z,10.96
2019-04-22T00:29:34.498Z,10.94
2019-04-22T00:32:04.972Z,10.91
2019-04-22T00:34:43.990Z,10.88
2019-04-22T00:37:17.224Z,10.82
2019-04-22T00:39:46.528Z,10.78
2019-04-22T00:42:17.257Z,10.74
2019-04-22T00:44:46.644Z,10.70
2019-04-22T00:47:24.957Z,10.67
2019-04-22T00:52:16.603Z,10.60
2019-04-22T00:54:55.781Z,10.55
2019-04-22T00:57:26.300Z,10.53
2019-04-22T00:59:54.892Z,10.52
2019-04-22T01:04:59.571Z,10.48
2019-04-22T01:07:27.103Z,10.46
2019-04-22T01:09:58.633Z,10.44
2019-04-22T01:12:26.445Z,10.41
2019-04-22T01:14:57.362Z,10.39
2019-04-22T01:17:29.201Z,10.35
2019-04-22T01:20:13.927Z,10.32
2019-04-22T01:22:30.333Z,10.27
2019-04-22T01:27:22.114Z,10.16
2019-04-22T01:29:48.945Z,10.13
2019-04-22T01:32:15.373Z,10.08
2019-04-22T01:34:52.586Z,10.06
2019-04-22T01:37:32.886Z,10.03
2019-04-22T01:40:09.686Z,10.01
2019-04-22T01:42:39.449Z,9.98
2019-04-22T01:45:06.698Z,9.96
2019-04-22T01:47:43.982Z,9.95
2019-04-22T01:50:16.504Z,9.91
2019-04-22T01:52:47.217Z,9.89
2019-04-22T01:55:17.459Z,9.87
2019-04-22T01:57:45.650Z,9.85
2019-04-22T02:00:05.240Z,9.84
2019-04-22T02:02:42.838Z,9.81
2019-04-22T02:05:17.718Z,9.81
2019-04-22T02:08:04.426Z,9.79
2019-04-22T02:10:20.138Z,9.76
2019-04-22T02:12:45.680Z,9.72
2019-04-22T02:15:16.741Z,9.68
2019-04-22T02:17:57.942Z,9.65
2019-04-22T02:20:23.201Z,9.62
2019-04-22T02:23:45.446Z,9.59
2019-04-22T02:26:09.359Z,9.56
2019-04-22T02:34:11.374Z,9.43
2019-04-22T02:56:27.262Z,9.02
2019-04-22T03:06:36.763Z,8.81
2019-04-22T03:09:00.486Z,8.77
2019-04-22T03:11:25.305Z,8.74
2019-04-22T03:14:01.377Z,8.69
2019-04-22T03:16:31.953Z,8.66
2019-04-22T03:21:27.975Z,8.60
2019-04-22T03:24:06.037Z,8.56
2019-04-22T03:26:43.818Z,8.55
2019-04-22T03:39:38.052Z,8.39
2019-04-22T03:47:11.330Z,8.31
2019-04-22T03:49:37.162Z,8.28
2019-04-22T03:52:11.217Z,8.26
2019-04-22T03:54:39.956Z,8.21
2019-04-22T03:59:47.716Z,8.16
2019-04-22T04:04:36.823Z,8.09
2019-04-22T04:09:38.584Z,8.05
2019-04-22T04:12:18.248Z,8.05
2019-04-22T04:14:47.183Z,8.01
2019-04-22T04:17:08.885Z,7.99
2019-04-22T04:22:21.363Z,7.94
2019-04-22T04:24:55.895Z,7.91
2019-04-22T04:35:07.170Z,7.81
2019-04-22T04:39:59.813Z,7.79
2019-04-22T04:47:39.107Z,7.82
2019-04-22T04:49:52.932Z,7.81
2019-04-22T04:52:39.110Z,7.82
2019-04-22T04:55:17.573Z,7.83
2019-04-22T05:00:22.098Z,7.84
2019-04-22T05:02:35.198Z,7.84
2019-04-22T05:05:06.281Z,7.85
2019-04-22T05:07:44.213Z,7.86
2019-04-22T05:10:03.820Z,7.88
2019-04-22T05:14:55.085Z,7.92
2019-04-22T05:20:08.461Z,7.95
2019-04-22T05:22:28.363Z,7.99
2019-04-22T05:24:58.369Z,8.01
2019-04-22T05:30:23.358Z,8.09
2019-04-22T05:32:31.031Z,8.13
2019-04-22T05:35:03.494Z,8.18
2019-04-22T05:40:14.016Z,8.25
2019-04-22T05:42:43.898Z,8.29
2019-04-22T05:45:04.587Z,8.34
2019-04-22T05:47:35.537Z,8.39
2019-04-22T05:50:02.241Z,8.45
2019-04-22T05:52:34.421Z,8.50
2019-04-22T05:55:08.198Z,8.54
2019-04-22T05:57:34.420Z,8.58
2019-04-22T06:00:08.266Z,8.61
2019-04-22T06:02:47.369Z,8.66
2019-04-22T06:05:11.734Z,8.70
2019-04-22T06:07:41.056Z,8.74
2019-04-22T06:12:40.545Z,8.85
2019-04-22T06:15:12.209Z,8.89
2019-04-22T06:17:54.789Z,8.93
2019-04-22T06:20:15.930Z,8.98
2019-04-22T06:22:50.771Z,9.04
2019-04-22T06:25:27.589Z,9.08
2019-04-22T06:30:24.320Z,9.19
2019-04-22T06:32:53.400Z,9.25
2019-04-22T06:35:29.758Z,9.31
2019-04-22T06:38:18.882Z,9.38
2019-04-22T06:40:29.718Z,9.43
2019-04-22T06:42:57.927Z,9.51
2019-04-22T06:45:26.322Z,9.59
2019-04-22T06:50:30.268Z,9.77
2019-04-22T06:53:06.791Z,9.86
2019-04-22T06:57:58.211Z,10.04
2019-04-22T07:00:30.783Z,10.13
2019-04-22T07:05:32.868Z,10.32
2019-04-22T07:08:18.286Z,10.40
2019-04-22T07:13:13.289Z,10.58
2019-04-22T07:15:46.546Z,10.73
2019-04-22T07:18:11.199Z,10.88
2019-04-22T07:20:38.634Z,11.05
2019-04-22T07:23:13.811Z,11.19
2019-04-22T07:25:41.234Z,11.33
2019-04-22T07:28:11.280Z,11.49
2019-04-22T07:30:41.098Z,11.63
2019-04-22T07:38:17.656Z,12.03
2019-04-22T07:40:51.827Z,12.18
2019-04-22T07:43:20.169Z,12.35
2019-04-22T07:45:49.268Z,12.48
2019-04-22T07:48:26.178Z,12.59
2019-04-22T07:50:58.334Z,12.73
2019-04-22T07:53:19.840Z,12.87
2019-04-22T07:55:55.440Z,12.98
2019-04-22T07:58:25.730Z,13.11
2019-04-22T08:00:55.932Z,13.25
2019-04-22T08:03:44.334Z,13.37
2019-04-22T08:08:25.834Z,13.63
2019-04-22T08:10:57.918Z,13.78
2019-04-22T08:13:30.843Z,13.96
2019-04-22T08:15:58.179Z,14.12
2019-04-22T08:18:28.373Z,14.29
2019-04-22T08:21:03.184Z,14.40
2019-04-22T08:23:31.843Z,14.57
2019-04-22T08:26:00.818Z,14.72
2019-04-22T08:31:10.366Z,15.06
2019-04-22T08:33:41.180Z,15.23
2019-04-22T08:36:11.942Z,15.39
2019-04-22T08:38:39.393Z,15.51
2019-04-22T08:41:23.004Z,15.67
2019-04-22T08:43:56.491Z,15.82
2019-04-22T08:46:23.587Z,15.94
2019-04-22T08:48:52.794Z,16.08
2019-04-22T08:51:21.041Z,16.18
2019-04-22T08:53:56.246Z,16.27
2019-04-22T08:56:29.358Z,16.38
2019-04-22T08:58:59.947Z,16.47
2019-04-22T09:01:23.818Z,16.57
2019-04-22T09:03:56.950Z,16.66
2019-04-22T09:06:39.889Z,16.75
2019-04-22T09:08:55.227Z,16.86
2019-04-22T09:11:27.043Z,16.96
2019-04-22T09:13:55.102Z,17.08
2019-04-22T09:16:32.733Z,17.18
2019-04-22T09:19:02.599Z,17.28
2019-04-22T09:26:30.359Z,17.58
2019-04-22T09:29:10.113Z,17.73
2019-04-22T09:31:30.436Z,17.87
2019-04-22T09:33:59.336Z,17.99
2019-04-22T09:36:33.996Z,18.10
2019-04-22T09:39:01.102Z,18.14
2019-04-22T09:44:02.886Z,18.35
2019-04-22T09:49:12.241Z,18.59
2019-04-22T09:51:41.449Z,18.72
2019-04-22T09:54:20.085Z,18.85
2019-04-22T09:59:08.810Z,18.99
2019-04-22T10:02:04.084Z,19.05
2019-04-22T10:04:14.291Z,19.14
2019-04-22T10:06:36.901Z,19.19
2019-04-22T10:09:44.282Z,19.21
2019-04-22T10:11:47.685Z,19.24
2019-04-22T10:19:18.694Z,19.42
2019-04-22T10:21:52.665Z,19.50
2019-04-22T10:24:13.952Z,19.60
2019-04-22T10:29:20.439Z,19.68
2019-04-22T10:31:52.778Z,19.65
2019-04-22T10:34:08.269Z,19.69
2019-04-22T10:36:27.794Z,19.74
2019-04-22T10:38:58.030Z,19.79
2019-04-22T10:41:28.435Z,19.89
2019-04-22T10:43:59.184Z,19.99
2019-04-22T10:46:28.501Z,20.07
2019-04-22T10:48:58.064Z,20.06
2019-04-22T10:51:28.538Z,20.11
2019-04-22T10:53:57.762Z,20.21
2019-04-22T10:56:27.344Z,20.26
2019-04-22T10:58:56.392Z,20.29
2019-04-22T11:01:25.712Z,20.32
2019-04-22T11:03:55.201Z,20.34
2019-04-22T11:06:25.384Z,20.42
2019-04-22T11:09:00.965Z,20.49
2019-04-22T11:11:34.678Z,20.58
2019-04-22T11:13:56.199Z,20.64
2019-04-22T11:16:25.727Z,20.72
2019-04-22T11:18:55.852Z,20.81
2019-04-22T11:21:25.387Z,20.86
2019-04-22T11:23:54.677Z,20.92
2019-04-22T11:26:23.972Z,20.96
2019-04-22T11:28:53.984Z,21.03
2019-04-22T11:31:24.113Z,21.13
2019-04-22T11:33:54.420Z,21.29
2019-04-22T11:36:25.641Z,21.40
2019-04-22T11:39:00.362Z,21.56
2019-04-22T11:41:25.663Z,21.62
2019-04-22T11:43:54.752Z,21.75
2019-04-22T11:46:25.308Z,21.94
2019-04-22T11:48:55.925Z,21.96
2019-04-22T11:51:25.080Z,21.96
2019-04-22T11:53:54.766Z,22.05
2019-04-22T11:56:25.260Z,22.07
2019-04-22T11:58:55.182Z,22.21
2019-04-22T12:01:24.701Z,22.33
2019-04-22T12:03:53.947Z,22.43
2019-04-22T12:06:24.005Z,22.59
2019-04-22T12:08:54.159Z,22.72
2019-04-22T12:11:23.395Z,22.78
2019-04-22T12:13:53.816Z,22.89
2019-04-22T12:16:23.378Z,23.10
2019-04-22T12:18:53.517Z,23.26
2019-04-22T12:21:23.410Z,23.40
2019-04-22T12:23:52.902Z,23.44
2019-04-22T12:26:24.686Z,23.51
2019-04-22T12:28:53.291Z,23.51
2019-04-22T12:31:23.677Z,23.41
2019-04-22T12:33:53.113Z,23.25
2019-04-22T12:36:22.635Z,23.07
2019-04-22T12:38:51.781Z,22.98
2019-04-22T12:41:21.618Z,23.13
2019-04-22T12:43:51.500Z,23.31
2019-04-22T12:46:20.621Z,23.57
2019-04-22T12:48:49.915Z,23.65
2019-04-22T12:51:19.099Z,23.62
2019-04-22T12:53:48.846Z,23.63
2019-04-22T12:56:19.386Z,23.78
2019-04-22T12:58:49.873Z,23.86
2019-04-22T13:01:19.104Z,23.86
2019-04-22T13:03:48.229Z,23.78
2019-04-22T13:06:17.647Z,23.78
2019-04-22T13:08:47.662Z,23.77
2019-04-22T13:11:20.217Z,23.64
2019-04-22T13:13:49.153Z,23.75
2019-04-22T13:16:18.480Z,23.82
2019-04-22T13:18:53.850Z,23.56
2019-04-22T13:21:18.638Z,23.55
2019-04-22T13:23:48.871Z,23.51
2019-04-22T13:26:18.978Z,23.50
2019-04-22T13:28:49.238Z,23.39
2019-04-22T13:31:20.727Z,23.21
2019-04-22T13:33:52.778Z,23.11
2019-04-22T13:36:22.723Z,23.10
2019-04-22T13:38:51.294Z,23.21
2019-04-22T13:41:31.172Z,23.28
2019-04-22T13:43:51.095Z,23.39
2019-04-22T13:46:20.161Z,23.37
2019-04-22T13:49:14.846Z,23.32
2019-04-22T13:56:45.101Z,23.28
2019-04-22T13:59:04.589Z,23.23
2019-04-22T14:01:28.441Z,23.12
2019-04-22T14:04:07.084Z,23.05
2019-04-22T14:06:36.657Z,23.01
2019-04-22T14:09:09.412Z,23.06
2019-04-22T14:11:48.888Z,23.12
2019-04-22T14:14:09.341Z,23.17
2019-04-22T14:16:38.405Z,23.07
2019-04-22T14:19:07.924Z,23.15
2019-04-22T14:21:37.042Z,23.22
2019-04-22T14:24:07.310Z,23.40
2019-04-22T14:26:52.045Z,23.52
2019-04-22T14:29:08.137Z,23.50
2019-04-22T14:31:38.332Z,23.52
2019-04-22T14:34:09.568Z,23.49
2019-04-22T14:36:39.288Z,23.60
2019-04-22T14:39:10.286Z,23.52
2019-04-22T14:41:55.330Z,23.49
2019-04-22T14:47:09.062Z,23.55
2019-04-22T14:49:40.237Z,23.47
2019-04-22T14:52:10.649Z,23.45
2019-04-22T14:54:26.557Z,23.55
2019-04-22T14:56:44.627Z,23.52
2019-04-22T14:59:13.758Z,23.57
2019-04-22T15:01:43.536Z,23.52
2019-04-22T15:04:13.319Z,23.51
2019-04-22T15:06:45.155Z,23.49
2019-04-22T15:09:14.395Z,23.46
2019-04-22T15:11:57.013Z,23.25
2019-04-22T15:14:15.204Z,23.23
2019-04-22T15:17:02.651Z,23.22
2019-04-22T15:19:37.940Z,23.12
2019-04-22T15:22:08.428Z,22.90
2019-04-22T15:24:38.780Z,22.73
2019-04-22T15:27:08.735Z,22.54
2019-04-22T15:29:39.078Z,22.41
2019-04-22T15:32:09.350Z,22.32
2019-04-22T15:34:39.476Z,22.07
2019-04-22T15:37:08.764Z,21.79
2019-04-22T15:39:37.822Z,21.59
2019-04-22T15:42:14.555Z,21.45
2019-04-22T15:44:37.717Z,21.40
2019-04-22T15:47:07.044Z,21.33
2019-04-22T15:49:36.137Z,21.15
2019-04-22T15:52:06.633Z,20.93
2019-04-22T15:54:37.418Z,20.75
2019-04-22T15:57:06.791Z,20.58
2019-04-22T15:59:53.745Z,20.46
2019-04-22T16:02:08.311Z,20.37
2019-04-22T16:04:38.792Z,20.30
2019-04-22T16:07:08.620Z,20.11
2019-04-22T16:09:39.346Z,19.87
2019-04-22T16:12:16.144Z,19.65
2019-04-22T16:14:43.829Z,19.46
2019-04-22T16:17:10.597Z,19.31
2019-04-22T16:19:41.064Z,19.18
2019-04-22T16:22:16.905Z,19.04
2019-04-22T16:25:02.039Z,18.94
2019-04-22T16:27:32.069Z,18.80
2019-04-22T16:30:01.488Z,18.70
2019-04-22T16:32:31.923Z,18.68
2019-04-22T16:35:01.082Z,18.57
2019-04-22T16:37:30.596Z,18.46
2019-04-22T16:40:00.837Z,18.40
2019-04-22T16:42:37.715Z,18.36
2019-04-22T16:45:01.873Z,18.26
2019-04-22T16:47:31.393Z,18.08
2019-04-22T16:50:01.756Z,17.96
2019-04-22T16:52:32.212Z,17.85
2019-04-22T16:55:01.379Z,17.68
2019-04-22T16:57:30.477Z,17.60
2019-04-22T17:00:00.478Z,17.45
2019-04-22T17:02:58.654Z,17.38
2019-04-22T17:05:45.693Z,17.24
2019-04-22T17:08:16.338Z,17.08
2019-04-22T17:10:46.030Z,16.96
2019-04-22T17:13:20.691Z,16.90
2019-04-22T17:15:47.253Z,16.83
2019-04-22T17:18:17.197Z,16.71
2019-04-22T17:20:46.588Z,16.63
2019-04-22T17:23:15.925Z,16.53
2019-04-22T17:25:45.173Z,16.49
2019-04-22T17:28:15.393Z,16.42
2019-04-22T17:30:45.715Z,16.38
2019-04-22T17:33:14.854Z,16.32
2019-04-22T17:35:46.671Z,16.27
2019-04-22T17:38:23.568Z,16.17
2019-04-22T17:41:02.580Z,16.14
2019-04-22T17:43:52.292Z,16.07
2019-04-22T17:46:12.065Z,16.05
2019-04-22T17:48:53.358Z,15.96
2019-04-22T17:51:29.895Z,15.91
2019-04-22T17:53:59.896Z,15.84
2019-04-22T17:56:28.227Z,15.71
2019-04-22T17:58:57.139Z,15.74
2019-04-22T18:01:25.491Z,15.65
2019-04-22T18:03:42.395Z,15.58
2019-04-22T18:06:17.554Z,15.62
2019-04-22T18:08:59.049Z,15.55
2019-04-22T18:11:37.786Z,15.46
2019-04-22T18:14:16.165Z,15.33
2019-04-22T18:16:30.540Z,15.34
2019-04-22T18:19:00.563Z,15.33
2019-04-22T18:21:26.346Z,15.26
2019-04-22T18:23:52.849Z,15.20
2019-04-22T18:26:33.444Z,15.20
2019-04-22T18:29:05.725Z,15.17
2019-04-22T18:31:26.884Z,15.06
2019-04-22T18:34:00.674Z,15.00
2019-04-22T18:36:36.029Z,14.95
2019-04-22T18:39:12.898Z,14.86
2019-04-22T18:41:36.499Z,14.89
2019-04-22T18:44:09.635Z,14.86
2019-04-22T18:46:36.548Z,14.83
2019-04-22T18:49:08.170Z,14.78
2019-04-22T18:51:46.827Z,14.77
2019-04-22T18:54:30.668Z,14.74
2019-04-22T18:57:02.724Z,14.73
2019-04-22T18:59:22.509Z,14.68
2019-04-22T19:01:48.114Z,14.67
2019-04-22T19:04:25.370Z,14.63
2019-04-22T19:07:07.362Z,14.59
2019-04-22T19:09:49.956Z,14.55
2019-04-22T19:12:23.675Z,14.50
2019-04-22T19:14:51.112Z,14.51
2019-04-22T19:17:30.049Z,14.46
2019-04-22T19:19:50.007Z,14.40
2019-04-22T19:22:16.234Z,14.33
2019-04-22T19:24:41.774Z,14.32
2019-04-22T19:27:15.732Z,14.24
2019-04-22T19:29:55.849Z,14.20
2019-04-22T19:32:21.337Z,14.13
2019-04-22T19:34:50.541Z,14.10
2019-04-22T19:37:18.957Z,14.08
2019-04-22T19:40:00.929Z,14.05
2019-04-22T19:42:33.135Z,13.98
2019-04-22T19:44:55.165Z,13.95
2019-04-22T19:49:59.072Z,13.79
2019-04-22T19:52:28.679Z,13.77
2019-04-22T19:54:59.360Z,13.76
2019-04-22T19:57:22.452Z,13.73
2019-04-22T19:59:57.408Z,13.69
2019-04-22T20:02:57.484Z,13.70
2019-04-22T20:05:48.072Z,13.63
2019-04-22T20:08:15.317Z,13.61
2019-04-22T20:10:47.100Z,13.59
2019-04-22T20:13:28.878Z,13.59
2019-04-22T20:15:41.171Z,13.57
2019-04-22T20:18:29.681Z,13.56
2019-04-22T20:20:54.071Z,13.55
2019-04-22T20:23:15.955Z,13.54
2019-04-22T20:25:46.435Z,13.50
2019-04-22T20:28:25.650Z,13.48
2019-04-22T20:30:50.595Z,13.45
2019-04-22T20:33:29.498Z,13.39
2019-04-22T20:36:01.535Z,13.37
2019-04-22T20:38:28.029Z,13.34
2019-04-22T20:40:55.159Z,13.31
2019-04-22T20:43:35.540Z,13.32
2019-04-22T20:45:59.191Z,13.29
2019-04-22T20:48:22.794Z,13.28
2019-04-22T20:50:58.217Z,13.28
2019-04-22T20:53:34.452Z,13.27
2019-04-22T20:56:01.021Z,13.25
2019-04-22T20:58:32.745Z,13.22
2019-04-22T21:00:58.366Z,13.18
2019-04-22T21:03:26.139Z,13.16
2019-04-22T21:05:55.890Z,13.13
2019-04-22T21:08:38.010Z,13.10
2019-04-22T21:10:56.127Z,13.03
2019-04-22T21:13:27.825Z,13.00
2019-04-22T21:16:09.278Z,12.96
2019-04-22T21:18:30.598Z,12.92
2019-04-22T21:21:07.096Z,12.88
2019-04-22T21:23:36.603Z,12.84
2019-04-22T21:26:11.101Z,12.81
2019-04-22T21:28:40.883Z,12.79
2019-04-22T21:31:14.925Z,12.78
2019-04-22T21:33:44.747Z,12.76
2019-04-22T21:36:19.936Z,12.76
2019-04-22T21:38:44.025Z,12.75
2019-04-22T21:41:17.708Z,12.75
2019-04-22T21:43:51.425Z,12.75
2019-04-22T21:46:16.234Z,12.73
2019-04-22T21:48:46.302Z,12.72
2019-04-22T21:51:19.140Z,12.69
2019-04-22T21:54:00.395Z,12.68
2019-04-22T21:56:38.224Z,12.66
2019-04-22T21:58:55.990Z,12.64
2019-04-22T22:01:49.795Z,12.60
2019-04-22T22:04:11.432Z,12.55
2019-04-22T22:06:31.061Z,12.51
2019-04-22T22:09:15.769Z,12.45
2019-04-22T22:11:41.750Z,12.41
2019-04-22T22:14:11.600Z,12.35
2019-04-22T22:16:34.913Z,12.33
2019-04-22T22:19:10.963Z,12.31
2019-04-22T22:21:51.340Z,12.27
2019-04-22T22:24:20.723Z,12.24
2019-04-22T22:26:54.266Z,12.21
2019-04-22T22:29:31.204Z,12.19
2019-04-22T22:31:55.637Z,12.16
2019-04-22T22:34:34.841Z,12.12
2019-04-22T22:36:40.635Z,12.07
2019-04-22T22:39:14.683Z,12.03
2019-04-22T22:41:31.856Z,12.00
2019-04-22T22:44:08.974Z,11.97
2019-04-22T22:46:44.317Z,11.93
2019-04-22T22:49:28.281Z,11.92
2019-04-22T22:52:11.685Z,11.90
2019-04-22T22:54:31.759Z,11.89
2019-04-22T22:59:29.580Z,11.86
2019-04-22T23:01:54.337Z,11.83
2019-04-22T23:04:37.243Z,11.80
2019-04-22T23:07:09.256Z,11.78
2019-04-22T23:09:30.761Z,11.75
2019-04-22T23:14:34.699Z,11.70
2019-04-22T23:16:51.448Z,11.68
2019-04-22T23:19:13.679Z,11.67
2019-04-22T23:21:46.829Z,11.66
2019-04-22T23:24:43.970Z,11.66
2019-04-22T23:27:20.527Z,11.65
2019-04-22T23:30:06.491Z,11.60
2019-04-22T23:32:37.818Z,11.54
2019-04-22T23:35:35.320Z,11.58
2019-04-22T23:38:06.293Z,11.56
2019-04-22T23:40:39.018Z,11.51
2019-04-22T23:43:15.873Z,11.53
2019-04-22T23:45:43.414Z,11.52
2019-04-22T23:48:06.810Z,11.52
2019-04-22T23:50:47.741Z,11.51
2019-04-22T23:53:42.338Z,11.56
2019-04-22T23:56:00.514Z,11.60
2019-04-22T23:58:49.245Z,11.62
